createdAt,value
2017-12-21T00:00:58.970Z,5.60
2017-12-21T00:03:26.055Z,5.70
2017-12-21T00:05:53.124Z,5.60
2017-12-21T00:08:20.197Z,5.60
2017-12-21T00:10:47.254Z,5.70
2017-12-21T00:13:14.348Z,5.80
2017-12-21T00:15:41.409Z,5.80
2017-12-21T00:18:08.538Z,5.90
2017-12-21T00:20:35.627Z,5.90
2017-12-21T00:23:02.694Z,5.90
2017-12-21T00:25:29.771Z,5.90
2017-12-21T00:27:56.836Z,6.00
2017-12-21T00:30:23.887Z,5.90
2017-12-21T00:32:50.952Z,5.90
2017-12-21T00:35:18.107Z,6.00
2017-12-21T00:37:45.163Z,6.00
2017-12-21T00:40:12.284Z,6.00
2017-12-21T00:42:39.384Z,6.00
2017-12-21T00:45:07.254Z,5.90
2017-12-21T00:47:35.147Z,6.00
2017-12-21T00:50:02.664Z,5.90
2017-12-21T00:52:31.675Z,5.90
2017-12-21T00:54:59.467Z,5.90
2017-12-21T00:57:27.902Z,5.90
2017-12-21T00:59:55.888Z,6.00
2017-12-21T01:02:25.199Z,5.90
2017-12-21T01:04:52.282Z,6.00
2017-12-21T01:07:19.663Z,5.80
2017-12-21T01:09:46.722Z,5.90
2017-12-21T01:12:13.813Z,5.90
2017-12-21T01:14:40.963Z,5.90
2017-12-21T01:17:08.026Z,6.00
2017-12-21T01:19:35.121Z,6.00
2017-12-21T01:22:02.223Z,6.00
2017-12-21T01:24:30.151Z,6.10
2017-12-21T01:26:58.041Z,6.00
2017-12-21T01:29:25.205Z,5.90
2017-12-21T01:31:52.292Z,5.90
2017-12-21T01:34:19.379Z,5.90
2017-12-21T01:36:46.447Z,5.90
2017-12-21T01:39:13.559Z,5.90
2017-12-21T01:41:41.454Z,6.00
2017-12-21T01:44:08.532Z,6.00
2017-12-21T01:46:35.630Z,6.00
2017-12-21T01:49:02.720Z,6.00
2017-12-21T01:51:29.826Z,6.00
2017-12-21T01:53:57.648Z,5.90
2017-12-21T01:56:24.700Z,5.90
2017-12-21T01:58:51.754Z,5.90
2017-12-21T02:01:18.901Z,5.90
2017-12-21T02:03:45.953Z,5.90
2017-12-21T02:06:13.062Z,6.00
2017-12-21T02:08:40.106Z,5.90
2017-12-21T02:11:07.200Z,6.00
2017-12-21T02:13:34.246Z,5.90
2017-12-21T02:16:01.325Z,6.00
2017-12-21T02:18:28.385Z,6.00
2017-12-21T02:20:56.239Z,5.90
2017-12-21T02:23:23.297Z,5.90
2017-12-21T02:25:51.147Z,5.90
2017-12-21T02:28:18.289Z,5.90
2017-12-21T02:30:45.334Z,6.00
2017-12-21T02:33:12.414Z,6.00
2017-12-21T02:35:39.463Z,6.00
2017-12-21T02:38:06.547Z,6.00
2017-12-21T02:40:33.638Z,5.90
2017-12-21T02:43:00.716Z,6.00
2017-12-21T02:45:27.786Z,6.00
2017-12-21T02:47:54.872Z,6.00
2017-12-21T02:50:22.044Z,6.10
2017-12-21T02:52:49.107Z,6.10
2017-12-21T02:55:16.931Z,6.10
2017-12-21T02:57:43.999Z,6.10
2017-12-21T03:00:11.079Z,6.00
2017-12-21T03:02:38.891Z,6.20
2017-12-21T03:05:05.932Z,6.20
2017-12-21T03:07:32.973Z,6.10
2017-12-21T03:10:00.029Z,6.20
2017-12-21T03:12:27.074Z,6.20
2017-12-21T03:14:55.008Z,6.20
2017-12-21T03:17:22.827Z,6.10
2017-12-21T03:19:49.898Z,6.10
2017-12-21T03:22:16.953Z,6.20
2017-12-21T03:24:44.011Z,6.20
2017-12-21T03:27:11.833Z,6.20
2017-12-21T03:29:38.956Z,6.20
2017-12-21T03:32:05.995Z,6.20
2017-12-21T03:34:33.050Z,6.20
2017-12-21T03:37:00.115Z,6.20
2017-12-21T03:39:27.192Z,6.20
2017-12-21T03:41:54.241Z,6.30
2017-12-21T03:44:21.341Z,6.30
2017-12-21T03:46:48.411Z,6.30
2017-12-21T03:49:15.451Z,6.30
2017-12-21T03:51:42.506Z,6.40
2017-12-21T03:54:09.555Z,6.40
2017-12-21T03:56:36.604Z,6.30
2017-12-21T03:59:03.679Z,6.40
2017-12-21T04:01:31.539Z,6.50
2017-12-21T04:03:58.588Z,6.40
2017-12-21T04:06:25.636Z,6.50
2017-12-21T04:08:52.729Z,6.50
2017-12-21T04:11:20.548Z,6.50
2017-12-21T04:13:47.599Z,6.50
2017-12-21T04:16:14.656Z,6.50
2017-12-21T04:18:41.707Z,6.50
2017-12-21T04:21:08.759Z,6.50
2017-12-21T04:23:35.818Z,6.50
2017-12-21T04:26:02.901Z,6.60
2017-12-21T04:28:29.954Z,6.60
2017-12-21T04:30:57.005Z,6.50
2017-12-21T04:33:24.071Z,6.60
2017-12-21T04:35:51.170Z,6.60
2017-12-21T04:38:18.206Z,6.60
2017-12-21T04:40:45.279Z,6.60
2017-12-21T04:43:12.697Z,6.60
2017-12-21T04:45:39.748Z,6.70
2017-12-21T04:48:06.815Z,6.60
2017-12-21T04:50:33.863Z,6.60
2017-12-21T04:53:00.928Z,6.60
2017-12-21T04:55:28.775Z,6.60
2017-12-21T04:57:55.887Z,6.60
2017-12-21T05:00:22.968Z,6.60
2017-12-21T05:02:50.038Z,6.60
2017-12-21T05:05:17.102Z,6.60
2017-12-21T05:07:44.147Z,6.60
2017-12-21T05:10:11.227Z,6.60
2017-12-21T05:12:38.269Z,6.70
2017-12-21T05:15:05.337Z,6.60
2017-12-21T05:17:32.411Z,6.70
2017-12-21T05:19:59.574Z,6.70
2017-12-21T05:22:27.382Z,6.80
2017-12-21T05:24:54.783Z,6.80
2017-12-21T05:27:21.829Z,6.80
2017-12-21T05:29:48.912Z,6.80
2017-12-21T05:32:15.950Z,6.80
2017-12-21T05:34:43.011Z,6.70
2017-12-21T05:37:10.594Z,6.70
2017-12-21T05:39:37.758Z,6.70
2017-12-21T05:42:04.813Z,6.80
2017-12-21T05:44:31.894Z,6.80
2017-12-21T05:46:59.760Z,6.80
2017-12-21T05:49:27.596Z,6.90
2017-12-21T05:51:54.666Z,6.90
2017-12-21T05:54:21.754Z,6.80
2017-12-21T05:56:48.811Z,6.80
2017-12-21T05:59:16.298Z,6.90
2017-12-21T06:01:43.900Z,6.90
2017-12-21T06:04:12.165Z,7.00
2017-12-21T06:06:40.482Z,7.20
2017-12-21T06:09:07.988Z,7.20
2017-12-21T06:11:35.498Z,7.40
2017-12-21T06:14:02.992Z,7.50
2017-12-21T06:16:30.496Z,7.40
2017-12-21T06:18:58.792Z,7.50
2017-12-21T06:21:26.291Z,7.50
2017-12-21T06:23:53.792Z,7.70
2017-12-21T06:26:22.046Z,7.80
2017-12-21T06:28:49.591Z,7.70
2017-12-21T06:31:17.095Z,7.60
2017-12-21T06:33:44.612Z,7.80
2017-12-21T06:36:12.128Z,7.60
2017-12-21T06:38:39.615Z,7.70
2017-12-21T06:41:07.120Z,7.60
2017-12-21T06:43:35.392Z,7.70
2017-12-21T06:46:03.691Z,7.70
2017-12-21T06:48:31.204Z,7.70
2017-12-21T06:50:58.707Z,7.80
2017-12-21T06:53:26.307Z,7.70
2017-12-21T06:55:53.878Z,7.80
2017-12-21T06:58:21.376Z,7.90
2017-12-21T07:00:49.646Z,7.90
2017-12-21T07:03:17.926Z,7.80
2017-12-21T07:05:46.204Z,7.90
2017-12-21T07:08:15.502Z,8.00
2017-12-21T07:10:43.779Z,7.80
2017-12-21T07:13:12.161Z,7.90
2017-12-21T07:15:39.689Z,7.90
2017-12-21T07:18:07.207Z,7.90
2017-12-21T07:20:34.716Z,8.00
2017-12-21T07:23:02.202Z,8.00
2017-12-21T07:25:29.711Z,8.00
2017-12-21T07:27:57.421Z,7.90
2017-12-21T07:30:24.941Z,7.90
2017-12-21T07:32:52.460Z,7.80
2017-12-21T07:35:19.989Z,7.90
2017-12-21T07:37:48.279Z,8.00
2017-12-21T07:40:15.819Z,8.00
2017-12-21T07:42:43.370Z,8.10
2017-12-21T07:45:10.888Z,7.90
2017-12-21T07:47:38.419Z,8.00
2017-12-21T07:50:05.981Z,8.00
2017-12-21T07:52:33.659Z,8.00
2017-12-21T07:55:01.924Z,7.90
2017-12-21T07:57:29.424Z,7.90
2017-12-21T07:59:56.942Z,8.00
2017-12-21T08:02:24.455Z,8.10
2017-12-21T08:04:52.899Z,8.30
2017-12-21T08:07:20.420Z,8.30
2017-12-21T08:09:48.023Z,8.20
2017-12-21T08:12:15.514Z,8.00
2017-12-21T08:14:43.799Z,7.80
2017-12-21T08:17:11.329Z,7.80
2017-12-21T08:19:38.853Z,7.90
2017-12-21T08:22:06.369Z,7.90
2017-12-21T08:24:33.863Z,7.70
2017-12-21T08:27:01.425Z,7.80
2017-12-21T08:29:28.964Z,7.80
2017-12-21T08:31:56.502Z,8.00
2017-12-21T08:34:23.991Z,8.00
2017-12-21T08:36:51.497Z,8.00
2017-12-21T08:39:19.012Z,8.00
2017-12-21T08:41:47.284Z,8.10
2017-12-21T08:44:15.565Z,8.30
2017-12-21T08:46:44.542Z,8.30
2017-12-21T08:49:12.068Z,8.30
2017-12-21T08:51:39.580Z,8.50
2017-12-21T08:54:07.849Z,8.30
2017-12-21T08:56:35.358Z,8.30
2017-12-21T08:59:02.923Z,8.50
2017-12-21T09:01:30.462Z,8.60
2017-12-21T09:03:57.973Z,8.60
2017-12-21T09:06:25.487Z,8.50
2017-12-21T09:08:54.162Z,8.60
2017-12-21T09:11:21.658Z,8.50
2017-12-21T09:13:49.157Z,8.60
2017-12-21T09:16:17.430Z,8.60
2017-12-21T09:18:44.960Z,8.60
2017-12-21T09:21:12.479Z,8.70
2017-12-21T09:23:39.998Z,8.80
2017-12-21T09:26:07.509Z,8.70
2017-12-21T09:28:35.019Z,8.90
2017-12-21T09:31:02.535Z,8.70
2017-12-21T09:33:30.034Z,8.80
2017-12-21T09:35:57.572Z,8.80
2017-12-21T09:38:25.098Z,9.00
2017-12-21T09:40:52.612Z,8.80
2017-12-21T09:43:20.097Z,8.80
2017-12-21T09:45:48.367Z,8.90
2017-12-21T09:48:16.667Z,9.00
2017-12-21T09:50:44.156Z,9.00
2017-12-21T09:53:11.667Z,9.00
2017-12-21T09:55:39.179Z,9.00
2017-12-21T09:58:06.677Z,8.90
2017-12-21T10:00:35.307Z,9.20
2017-12-21T10:03:02.812Z,9.10
2017-12-21T10:05:31.079Z,9.20
2017-12-21T10:07:58.568Z,9.10
2017-12-21T10:10:26.092Z,9.30
2017-12-21T10:12:53.582Z,9.10
2017-12-21T10:15:21.083Z,9.10
2017-12-21T10:17:48.725Z,9.20
2017-12-21T10:20:16.247Z,9.20
2017-12-21T10:22:44.542Z,9.30
2017-12-21T10:25:12.049Z,9.30
2017-12-21T10:27:39.555Z,9.40
2017-12-21T10:30:07.054Z,9.30
2017-12-21T10:32:34.567Z,9.20
2017-12-21T10:35:02.847Z,9.40
2017-12-21T10:37:31.141Z,9.50
2017-12-21T10:39:58.647Z,9.50
2017-12-21T10:42:26.155Z,9.60
2017-12-21T10:44:53.651Z,9.40
2017-12-21T10:47:21.196Z,9.30
2017-12-21T10:49:48.715Z,9.30
2017-12-21T10:52:16.279Z,9.30
2017-12-21T10:54:43.795Z,9.30
2017-12-21T10:57:11.279Z,9.30
2017-12-21T10:59:38.790Z,9.40
2017-12-21T11:02:06.337Z,9.40
2017-12-21T11:04:33.851Z,9.50
2017-12-21T11:07:01.378Z,9.40
2017-12-21T11:09:28.890Z,9.50
2017-12-21T11:11:57.219Z,9.50
2017-12-21T11:14:24.741Z,9.50
2017-12-21T11:16:53.054Z,9.40
2017-12-21T11:19:20.572Z,9.40
2017-12-21T11:21:48.847Z,9.60
2017-12-21T11:24:17.197Z,9.60
2017-12-21T11:26:44.736Z,9.60
2017-12-21T11:29:12.252Z,9.70
2017-12-21T11:31:40.529Z,9.50
2017-12-21T11:34:08.050Z,9.50
2017-12-21T11:36:35.552Z,9.60
2017-12-21T11:39:03.075Z,9.70
2017-12-21T11:41:30.571Z,9.50
2017-12-21T11:43:58.080Z,9.60
2017-12-21T11:46:25.593Z,9.50
2017-12-21T11:48:53.112Z,9.40
2017-12-21T11:51:20.626Z,9.50
2017-12-21T11:53:48.267Z,9.60
2017-12-21T11:56:15.801Z,9.40
2017-12-21T11:58:43.320Z,9.50
2017-12-21T12:01:10.864Z,9.40
2017-12-21T12:03:38.392Z,9.40
2017-12-21T12:06:05.908Z,9.30
2017-12-21T12:08:33.444Z,9.30
2017-12-21T12:11:00.948Z,9.10
2017-12-21T12:13:28.464Z,9.30
2017-12-21T12:15:56.000Z,9.30
2017-12-21T12:18:24.293Z,9.20
2017-12-21T12:20:51.791Z,9.20
2017-12-21T12:23:19.303Z,9.30
2017-12-21T12:25:46.846Z,9.30
2017-12-21T12:28:15.123Z,9.30
2017-12-21T12:30:43.405Z,9.30
2017-12-21T12:33:11.685Z,9.20
2017-12-21T12:35:39.993Z,9.20
2017-12-21T12:38:07.515Z,9.20
2017-12-21T12:40:35.061Z,9.00
2017-12-21T12:43:02.571Z,9.10
2017-12-21T12:45:30.118Z,9.10
2017-12-21T12:47:57.624Z,9.10
2017-12-21T12:50:25.155Z,9.20
2017-12-21T12:52:52.755Z,9.10
2017-12-21T12:55:20.362Z,9.00
2017-12-21T12:57:47.918Z,8.90
2017-12-21T13:00:15.428Z,8.90
2017-12-21T13:02:42.945Z,8.90
2017-12-21T13:05:10.542Z,8.80
2017-12-21T13:07:38.082Z,8.70
2017-12-21T13:10:05.612Z,8.60
2017-12-21T13:12:33.893Z,8.80
2017-12-21T13:15:01.395Z,8.70
2017-12-21T13:17:28.901Z,8.70
2017-12-21T13:19:56.419Z,8.60
2017-12-21T13:22:23.924Z,8.60
2017-12-21T13:24:51.435Z,8.50
2017-12-21T13:27:18.944Z,8.50
2017-12-21T13:29:46.460Z,8.60
2017-12-21T13:32:14.003Z,8.70
2017-12-21T13:34:41.491Z,8.70
2017-12-21T13:37:09.042Z,8.70
2017-12-21T13:39:36.538Z,8.70
2017-12-21T13:42:04.076Z,8.60
2017-12-21T13:44:32.343Z,8.30
2017-12-21T13:46:59.860Z,8.30
2017-12-21T13:49:27.399Z,8.20
2017-12-21T13:51:54.896Z,8.20
2017-12-21T13:54:22.406Z,8.10
2017-12-21T13:56:49.956Z,8.10
2017-12-21T13:59:18.221Z,8.00
2017-12-21T14:01:46.512Z,8.10
2017-12-21T14:04:14.807Z,8.10
2017-12-21T14:06:42.307Z,8.00
2017-12-21T14:09:09.807Z,8.10
2017-12-21T14:11:37.351Z,8.10
2017-12-21T14:14:05.638Z,8.00
2017-12-21T14:16:33.903Z,8.00
2017-12-21T14:19:02.235Z,8.10
2017-12-21T14:21:29.777Z,8.10
2017-12-21T14:23:57.319Z,8.10
2017-12-21T14:26:25.589Z,8.20
2017-12-21T14:28:53.867Z,8.30
2017-12-21T14:31:22.158Z,8.30
2017-12-21T14:33:49.702Z,8.30
2017-12-21T14:36:17.259Z,8.20
2017-12-21T14:38:45.531Z,8.20
2017-12-21T14:41:13.810Z,8.20
2017-12-21T14:43:42.102Z,8.30
2017-12-21T14:46:10.393Z,8.20
2017-12-21T14:48:37.949Z,8.20
2017-12-21T14:51:05.444Z,8.20
2017-12-21T14:53:32.956Z,8.10
2017-12-21T14:56:01.216Z,7.90
2017-12-21T14:58:29.670Z,7.90
2017-12-21T15:00:57.207Z,7.90
2017-12-21T15:03:24.708Z,7.90
2017-12-21T15:05:52.230Z,8.00
2017-12-21T15:08:19.735Z,7.90
2017-12-21T15:10:48.008Z,7.90
2017-12-21T15:13:16.277Z,7.90
2017-12-21T15:15:43.850Z,7.80
2017-12-21T15:18:12.159Z,7.90
2017-12-21T15:20:39.658Z,7.80
2017-12-21T15:23:07.153Z,7.80
2017-12-21T15:25:35.455Z,7.70
2017-12-21T15:28:02.961Z,7.70
2017-12-21T15:30:30.473Z,7.60
2017-12-21T15:32:57.977Z,7.70
2017-12-21T15:35:25.506Z,7.70
2017-12-21T15:37:53.009Z,7.90
2017-12-21T15:40:20.559Z,8.00
2017-12-21T15:42:48.069Z,8.00
2017-12-21T15:45:15.578Z,7.90
2017-12-21T15:47:43.080Z,7.80
2017-12-21T15:50:10.568Z,7.80
2017-12-21T15:52:38.069Z,7.80
2017-12-21T15:55:05.568Z,7.60
2017-12-21T15:57:33.107Z,7.70
2017-12-21T16:00:00.612Z,7.80
2017-12-21T16:02:28.156Z,7.90
2017-12-21T16:04:55.687Z,7.90
2017-12-21T16:07:23.190Z,8.00
2017-12-21T16:09:50.720Z,8.10
2017-12-21T16:12:18.239Z,8.00
2017-12-21T16:14:45.778Z,8.10
2017-12-21T16:17:13.330Z,8.10
2017-12-21T16:19:40.897Z,8.00
2017-12-21T16:22:08.400Z,8.00
2017-12-21T16:24:36.724Z,7.90
2017-12-21T16:27:04.256Z,7.90
2017-12-21T16:29:31.876Z,8.00
2017-12-21T16:31:59.404Z,7.90
2017-12-21T16:34:26.899Z,7.70
2017-12-21T16:36:55.182Z,7.60
2017-12-21T16:39:22.718Z,7.60
2017-12-21T16:41:50.228Z,7.60
2017-12-21T16:44:17.761Z,7.70
2017-12-21T16:46:46.032Z,7.80
2017-12-21T16:49:14.306Z,7.80
2017-12-21T16:51:41.819Z,7.80
2017-12-21T16:54:09.342Z,7.60
2017-12-21T16:56:36.862Z,7.60
2017-12-21T16:59:04.423Z,7.80
2017-12-21T17:01:31.936Z,7.90
2017-12-21T17:03:59.477Z,7.90
2017-12-21T17:06:27.747Z,8.20
2017-12-21T17:08:56.006Z,8.00
2017-12-21T17:11:23.515Z,8.00
2017-12-21T17:13:51.032Z,8.00
2017-12-21T17:16:18.540Z,7.90
2017-12-21T17:18:46.058Z,8.00
2017-12-21T17:21:14.347Z,7.90
2017-12-21T17:23:41.857Z,7.90
2017-12-21T17:26:09.384Z,7.80
2017-12-21T17:28:36.880Z,7.80
2017-12-21T17:31:04.421Z,7.70
2017-12-21T17:33:31.936Z,7.70
2017-12-21T17:35:59.497Z,7.70
2017-12-21T17:38:27.812Z,7.70
2017-12-21T17:40:55.381Z,7.70
2017-12-21T17:43:22.959Z,7.60
2017-12-21T17:45:50.492Z,7.60
2017-12-21T17:48:17.994Z,7.70
2017-12-21T17:50:45.508Z,7.70
2017-12-21T17:53:13.019Z,7.70
2017-12-21T17:55:40.632Z,7.60
2017-12-21T17:58:08.180Z,7.60
2017-12-21T18:00:35.784Z,7.60
2017-12-21T18:03:03.318Z,7.60
2017-12-21T18:05:30.891Z,7.70
2017-12-21T18:07:58.425Z,7.60
2017-12-21T18:10:26.155Z,7.60
2017-12-21T18:12:54.485Z,7.50
2017-12-21T18:15:21.994Z,7.50
2017-12-21T18:17:49.488Z,7.60
2017-12-21T18:20:17.004Z,7.60
2017-12-21T18:22:45.287Z,7.50
2017-12-21T18:25:13.580Z,7.50
2017-12-21T18:27:41.860Z,7.50
2017-12-21T18:30:09.416Z,7.50
2017-12-21T18:32:36.926Z,7.60
2017-12-21T18:35:04.465Z,7.70
2017-12-21T18:37:31.990Z,7.60
2017-12-21T18:39:59.509Z,7.60
2017-12-21T18:42:27.044Z,7.60
2017-12-21T18:44:54.559Z,7.60
2017-12-21T18:47:22.061Z,7.50
2017-12-21T18:49:49.577Z,7.50
2017-12-21T18:52:17.860Z,7.30
2017-12-21T18:54:46.283Z,7.40
2017-12-21T18:57:13.795Z,7.30
2017-12-21T18:59:42.116Z,7.40
2017-12-21T19:02:09.634Z,7.40
2017-12-21T19:04:37.165Z,7.50
2017-12-21T19:07:04.703Z,7.50
2017-12-21T19:09:32.274Z,7.50
2017-12-21T19:11:59.805Z,7.40
2017-12-21T19:14:27.306Z,7.40
2017-12-21T19:16:54.875Z,7.40
2017-12-21T19:19:22.464Z,7.30
2017-12-21T19:21:49.986Z,7.10
2017-12-21T19:24:17.505Z,7.10
2017-12-21T19:26:45.049Z,7.00
2017-12-21T19:29:12.574Z,7.10
2017-12-21T19:31:40.112Z,7.20
2017-12-21T19:34:07.665Z,7.20
2017-12-21T19:36:35.190Z,7.20
2017-12-21T19:39:03.268Z,7.10
2017-12-21T19:41:30.795Z,7.10
2017-12-21T19:43:58.299Z,7.10
2017-12-21T19:46:25.850Z,7.20
2017-12-21T19:48:53.384Z,7.20
2017-12-21T19:51:20.890Z,7.00
2017-12-21T19:53:48.404Z,7.10
2017-12-21T19:56:16.678Z,7.00
2017-12-21T19:58:44.991Z,6.90
2017-12-21T20:01:12.494Z,6.90
2017-12-21T20:03:40.023Z,6.80
2017-12-21T20:06:07.559Z,6.90
2017-12-21T20:08:36.081Z,6.90
2017-12-21T20:11:03.620Z,6.90
2017-12-21T20:13:31.148Z,6.90
2017-12-21T20:15:58.664Z,6.80
2017-12-21T20:18:26.168Z,6.60
2017-12-21T20:20:53.722Z,6.80
2017-12-21T20:23:22.004Z,6.80
2017-12-21T20:25:49.517Z,6.80
2017-12-21T20:28:17.065Z,6.80
2017-12-21T20:30:44.608Z,6.80
2017-12-21T20:33:12.140Z,6.90
2017-12-21T20:35:39.703Z,7.10
2017-12-21T20:38:07.311Z,6.80
2017-12-21T20:40:34.891Z,6.80
2017-12-21T20:43:02.435Z,6.90
2017-12-21T20:45:30.714Z,6.60
2017-12-21T20:47:58.264Z,6.60
2017-12-21T20:50:25.791Z,6.70
2017-12-21T20:52:53.325Z,6.60
2017-12-21T20:55:21.743Z,6.50
2017-12-21T20:57:49.258Z,6.50
2017-12-21T21:00:17.852Z,6.70
2017-12-21T21:02:46.168Z,6.70
2017-12-21T21:05:13.699Z,6.70
2017-12-21T21:07:41.337Z,6.80
2017-12-21T21:10:09.733Z,6.70
2017-12-21T21:12:37.271Z,6.60
2017-12-21T21:15:05.671Z,6.70
2017-12-21T21:17:33.210Z,6.70
2017-12-21T21:20:00.715Z,6.80
2017-12-21T21:22:28.249Z,6.70
2017-12-21T21:24:55.880Z,6.70
2017-12-21T21:27:23.379Z,6.70
2017-12-21T21:29:50.887Z,6.80
2017-12-21T21:32:18.419Z,6.80
2017-12-21T21:34:45.920Z,6.80
2017-12-21T21:37:13.501Z,6.80
2017-12-21T21:39:41.794Z,6.70
2017-12-21T21:42:10.056Z,6.70
2017-12-21T21:44:38.345Z,6.60
2017-12-21T21:47:06.707Z,6.70
2017-12-21T21:49:34.245Z,6.70
2017-12-21T21:52:01.773Z,6.70
2017-12-21T21:54:29.271Z,6.70
2017-12-21T21:56:56.801Z,6.70
2017-12-21T21:59:24.320Z,6.50
2017-12-21T22:01:52.594Z,6.60
2017-12-21T22:04:21.891Z,6.60
2017-12-21T22:06:49.428Z,6.60
2017-12-21T22:09:16.928Z,6.60
2017-12-21T22:11:44.462Z,6.60
2017-12-21T22:14:12.753Z,6.50
2017-12-21T22:16:41.613Z,6.70
2017-12-21T22:19:09.123Z,6.70
2017-12-21T22:21:36.661Z,6.70
2017-12-21T22:24:04.181Z,6.90
2017-12-21T22:26:32.455Z,6.90
2017-12-21T22:29:00.737Z,7.00
2017-12-21T22:31:28.243Z,7.00
2017-12-21T22:33:55.739Z,7.20
2017-12-21T22:36:23.305Z,7.20
2017-12-21T22:38:50.846Z,7.00
2017-12-21T22:41:18.355Z,7.00
2017-12-21T22:43:45.873Z,7.00
2017-12-21T22:46:13.414Z,6.90
2017-12-21T22:48:40.928Z,7.00
2017-12-21T22:51:08.452Z,7.00
2017-12-21T22:53:36.641Z,7.00
2017-12-21T22:56:04.197Z,6.90
2017-12-21T22:58:31.697Z,7.00
2017-12-21T23:01:00.003Z,7.00
2017-12-21T23:03:27.528Z,7.00
2017-12-21T23:05:55.055Z,7.00
2017-12-21T23:08:22.574Z,7.10
2017-12-21T23:10:50.107Z,6.80
2017-12-21T23:13:17.626Z,7.00
2017-12-21T23:15:45.201Z,6.90
2017-12-21T23:18:12.693Z,6.90
2017-12-21T23:20:40.214Z,7.00
2017-12-21T23:23:07.731Z,7.10
2017-12-21T23:25:35.267Z,7.00
2017-12-21T23:28:02.766Z,6.90
2017-12-21T23:30:30.305Z,6.90
2017-12-21T23:32:57.809Z,6.90
2017-12-21T23:35:25.311Z,6.70
2017-12-21T23:37:52.816Z,6.70
2017-12-21T23:40:20.335Z,6.50
2017-12-21T23:42:48.623Z,6.50
2017-12-21T23:45:16.163Z,6.50
2017-12-21T23:47:43.656Z,6.60
2017-12-21T23:50:11.176Z,6.60
2017-12-21T23:52:39.455Z,6.70
2017-12-21T23:55:07.772Z,6.60
2017-12-21T23:57:35.277Z,6.60
